Terminal Aerodrome Forecast
Issued by NWS

Home | Current Version | Previous Version | Text Only | Print | Product List | Glossary Off
Versions: 1 2 3 4 5 6 7 8 9 10 11 12 13 14 15 16 17 18 19 20 21 22 23 24 25 26 27 28

723
FTUS43 KGRB 201744
TAFMTW
TAF
KMTW 201744Z 2018/2118 03005KT 1 1/2SM -RA BR OVC003
     FM202000 07005KT 1SM BR OVC003
     FM210000 11003KT 1/4SM FG OVC002
     FM211000 09004KT 1/4SM -DZ FG OVC002
     FM211600 13007KT 1 1/2SM -DZ BR OVC004=

USA.gov is the U.S. government's official web portal to all federal, state and local government web resources and services.